Time;durP1;ratioP1;P1;durP2;ratioP2;P2;SDS_P1;SDS_P2;PMS_P1;PMS_P2;Temp;Humidity;BMP_temperature;BMP_pressure;BME280_temperature;BME280_humidity;BME280_pressure;Samples;Min_cycle;Max_cycle;Signal;HPM_P1;HPM_P2
2022/10/24 00:00:28;;;;;;;14.90;8.07;;;;;;;6.89;78.15;98264.03;4990475;28;20479;-61
2022/10/24 00:02:54;;;;;;;15.10;8.73;;;;;;;7.07;78.35;98282.19;4991795;28;20128;-60
2022/10/24 00:05:19;;;;;;;13.57;8.20;;;;;;;7.04;78.14;98286.13;4991573;28;20093;-59
2022/10/24 00:07:45;;;;;;;18.13;8.80;;;;;;;7.08;78.17;98290.91;4990521;28;20039;-61
2022/10/24 00:10:12;;;;;;;15.10;8.35;;;;;;;7.09;77.79;98297.75;4990263;28;20038;-60
2022/10/24 00:12:38;;;;;;;16.13;7.72;;;;;;;7.12;77.88;98284.91;4990577;28;20050;-60
2022/10/24 00:15:05;;;;;;;15.18;8.35;;;;;;;7.14;77.74;98282.81;4991583;28;20104;-60
2022/10/24 00:17:31;;;;;;;15.25;8.35;;;;;;;7.15;77.30;98281.00;4991793;28;20050;-61
2022/10/24 00:19:57;;;;;;;13.68;7.85;;;;;;;7.08;77.78;98283.78;4991533;28;20042;-60
2022/10/24 00:22:23;;;;;;;14.75;8.95;;;;;;;7.10;77.78;98280.94;4991424;28;20050;-60
2022/10/24 00:24:49;;;;;;;15.00;8.40;;;;;;;7.08;77.78;98278.53;4990278;28;20057;-61
2022/10/24 00:27:15;;;;;;;13.70;8.48;;;;;;;7.09;77.64;98271.41;4991454;28;20416;-59
2022/10/24 00:29:40;;;;;;;17.52;8.52;;;;;;;7.11;77.05;98274.59;4990535;28;20416;-61
2022/10/24 00:32:06;;;;;;;15.07;8.77;;;;;;;7.02;77.17;98276.84;4991350;28;20628;-60
2022/10/24 00:34:32;;;;;;;17.40;8.43;;;;;;;6.96;77.32;98278.63;4991715;28;20034;-60
2022/10/24 00:36:57;;;;;;;14.50;8.43;;;;;;;6.93;77.01;98276.47;4992828;28;20038;-61
2022/10/24 00:39:23;;;;;;;15.95;8.55;;;;;;;6.93;76.75;98279.09;4995641;28;20055;-61
2022/10/24 00:41:49;;;;;;;16.48;8.32;;;;;;;6.87;76.62;98280.06;4993667;28;20180;-61
2022/10/24 00:44:16;;;;;;;16.20;9.20;;;;;;;6.88;77.29;98280.84;4995389;28;20076;-60
2022/10/24 00:46:44;;;;;;;15.75;8.15;;;;;;;6.95;76.90;98273.59;4993655;28;20049;-60
2022/10/24 00:49:15;;;;;;;18.25;9.20;;;;;;;6.87;76.92;98266.88;4993886;28;20293;-60
2022/10/24 00:51:41;;;;;;;19.05;9.90;;;;;;;6.92;77.03;98277.50;4994841;28;20039;-60
2022/10/24 00:54:10;;;;;;;18.85;9.02;;;;;;;6.89;77.05;98266.66;4994719;28;20089;-60
2022/10/24 00:56:59;;;;;;;19.67;9.50;;;;;;;6.89;76.50;98256.91;4993446;28;20039;-61
2022/10/24 00:59:26;;;;;;;16.80;8.70;;;;;;;6.89;76.50;98264.81;4994609;28;20058;-60
2022/10/24 01:01:51;;;;;;;17.85;9.95;;;;;;;6.91;76.37;98265.38;4977397;28;20046;-60
2022/10/24 01:04:17;;;;;;;16.60;9.05;;;;;;;6.84;76.53;98254.19;4977287;28;20403;-59
2022/10/24 01:06:44;;;;;;;16.55;8.68;;;;;;;6.87;76.25;98266.88;4994551;28;20046;-59
2022/10/24 01:09:31;;;;;;;14.52;9.13;;;;;;;6.85;76.88;98263.69;4995007;28;20050;-59
2022/10/24 01:12:11;;;;;;;14.57;8.75;;;;;;;6.81;76.62;98260.75;4994408;28;20085;-60
2022/10/24 01:14:54;;;;;;;16.23;9.30;;;;;;;6.81;76.64;98284.44;4994770;28;20061;-61
2022/10/24 01:18:06;;;;;;;18.63;10.02;;;;;;;6.75;76.44;98284.59;4994444;28;20049;-60
2022/10/24 01:20:59;;;;;;;16.58;9.65;;;;;;;6.68;76.98;98287.41;4976862;28;20201;-60
2022/10/24 01:23:39;;;;;;;16.67;10.13;;;;;;;6.66;76.38;98286.03;4994608;28;20065;-60
2022/10/24 01:26:19;;;;;;;17.27;9.77;;;;;;;6.53;76.61;98282.69;4992998;28;20076;-60
2022/10/24 01:29:00;;;;;;;19.35;10.30;;;;;;;6.56;77.32;98290.13;4992979;28;20065;-61
2022/10/24 01:31:31;;;;;;;22.60;10.05;;;;;;;6.51;76.92;98276.84;4976675;28;20057;-60
2022/10/24 01:34:03;;;;;;;16.65;9.02;;;;;;;6.47;77.45;98274.91;4994431;28;20438;-59
2022/10/24 01:36:37;;;;;;;19.33;10.00;;;;;;;6.34;77.19;98276.03;4977194;28;20043;-60
2022/10/24 01:39:08;;;;;;;18.88;10.55;;;;;;;6.34;77.58;98279.47;4994431;28;20089;-59
2022/10/24 01:41:34;;;;;;;18.92;10.45;;;;;;;6.42;77.10;98288.03;4992864;28;20050;-60
2022/10/24 01:44:06;;;;;;;21.63;10.68;;;;;;;6.30;77.24;98280.97;4992873;28;20516;-60
2022/10/24 01:46:39;;;;;;;23.27;11.00;;;;;;;6.33;77.94;98277.06;4992547;28;20133;-60
2022/10/24 01:49:12;;;;;;;20.23;11.25;;;;;;;6.32;77.02;98272.81;4992051;28;20046;-61
2022/10/24 01:51:39;;;;;;;23.90;11.35;;;;;;;6.26;77.62;98282.47;4992564;28;20044;-60
2022/10/24 01:54:06;;;;;;;19.45;11.98;;;;;;;6.18;77.68;98277.59;4992581;28;20108;-60
2022/10/24 01:56:32;;;;;;;19.50;10.00;;;;;;;6.26;77.71;98269.31;4976085;28;20061;-60
2022/10/24 01:59:29;;;;;;;22.63;10.40;;;;;;;6.21;77.59;98286.88;4993538;28;20579;-60
2022/10/24 02:02:09;;;;;;;19.65;10.88;;;;;;;6.20;77.45;98291.31;4993639;28;20072;-61
2022/10/24 02:04:39;;;;;;;25.90;11.85;;;;;;;6.15;78.00;98293.88;4992552;28;20336;-60
2022/10/24 02:07:07;;;;;;;19.98;10.80;;;;;;;6.04;78.30;98290.22;4975949;28;20043;-60
2022/10/24 02:09:34;;;;;;;22.35;10.52;;;;;;;6.06;78.43;98292.63;4992169;28;20530;-59
2022/10/24 02:12:00;;;;;;;22.83;12.18;;;;;;;6.12;78.12;98305.66;4991821;28;20047;-60
2022/10/24 02:14:35;;;;;;;23.40;11.27;;;;;;;6.03;78.82;98296.53;4993364;28;20050;-59
2022/10/24 02:17:02;;;;;;;23.75;12.35;;;;;;;6.02;79.30;98296.75;4993348;28;20047;-61
2022/10/24 02:19:29;;;;;;;27.23;12.55;;;;;;;6.03;78.71;98290.44;4993438;28;20117;-60
2022/10/24 02:22:01;;;;;;;22.00;12.55;;;;;;;6.05;78.96;98296.28;4993288;28;20050;-60
2022/10/24 02:24:32;;;;;;;26.33;12.32;;;;;;;5.99;79.42;98300.66;4993466;28;20042;-60
2022/10/24 02:27:03;;;;;;;33.10;16.55;;;;;;;6.01;79.47;98303.06;4975585;28;20096;-60
2022/10/24 02:29:33;;;;;;;33.13;16.77;;;;;;;5.94;79.59;98300.53;4991894;28;20043;-59
2022/10/24 02:32:00;;;;;;;29.85;16.48;;;;;;;5.97;79.46;98300.09;4991930;28;20100;-59
2022/10/24 02:34:30;;;;;;;29.33;13.13;;;;;;;5.92;79.56;98297.34;4991745;28;20415;-61
2022/10/24 02:36:57;;;;;;;26.27;13.75;;;;;;;5.93;80.41;98304.22;4959059;28;20133;-60
2022/10/24 02:39:23;;;;;;;24.70;13.13;;;;;;;5.90;80.23;98307.28;4991508;28;20050;-61
2022/10/24 02:41:50;;;;;;;23.23;12.00;;;;;;;5.85;80.43;98300.13;4974719;28;20038;-60
2022/10/24 02:44:17;;;;;;;22.98;12.18;;;;;;;5.86;80.03;98301.69;4991447;28;20088;-60
2022/10/24 02:46:44;;;;;;;25.15;12.65;;;;;;;5.81;80.64;98308.69;4991443;28;20044;-59
2022/10/24 02:49:10;;;;;;;21.63;11.50;;;;;;;5.78;81.08;98317.03;4992550;28;20053;-59
2022/10/24 02:51:38;;;;;;;23.23;11.38;;;;;;;5.75;81.47;98320.13;4992591;28;20096;-60
2022/10/24 02:54:04;;;;;;;22.73;11.52;;;;;;;5.81;80.64;98324.47;4991602;28;20427;-59
2022/10/24 02:56:30;;;;;;;25.10;12.05;;;;;;;5.85;80.69;98315.88;4992534;28;20522;-60
2022/10/24 02:58:56;;;;;;;24.55;11.70;;;;;;;5.85;80.82;98326.41;4991114;28;20054;-60
2022/10/24 03:01:21;;;;;;;19.05;10.57;;;;;;;5.81;80.61;98332.34;4992381;28;20460;-60
2022/10/24 03:03:47;;;;;;;20.42;9.80;;;;;;;5.81;80.28;98325.25;4992889;28;20050;-60
2022/10/24 03:06:13;;;;;;;18.73;9.77;;;;;;;5.85;79.95;98336.94;4992514;28;20101;-61
2022/10/24 03:08:38;;;;;;;19.73;10.18;;;;;;;5.84;80.75;98340.56;4992900;28;20054;-59
2022/10/24 03:11:04;;;;;;;19.27;10.65;;;;;;;5.81;80.95;98335.78;4992614;28;20046;-59
2022/10/24 03:13:30;;;;;;;19.00;10.25;;;;;;;5.85;81.19;98339.56;4992702;28;20046;-61
2022/10/24 03:15:56;;;;;;;19.10;10.27;;;;;;;5.85;80.96;98339.56;4992304;28;20133;-59
2022/10/24 03:18:21;;;;;;;18.35;9.48;;;;;;;5.85;81.47;98339.56;4992699;28;20054;-59
2022/10/24 03:20:47;;;;;;;16.35;9.02;;;;;;;5.78;81.40;98340.72;4992360;28;20499;-59
2022/10/24 03:23:13;;;;;;;17.60;9.55;;;;;;;5.82;81.34;98342.63;4992485;28;20086;-60
2022/10/24 03:25:38;;;;;;;20.52;10.05;;;;;;;5.81;81.55;98348.94;4992450;28;20046;-60
2022/10/24 03:28:04;;;;;;;24.25;13.07;;;;;;;5.72;81.68;98345.06;4991172;28;20476;-60
2022/10/24 03:30:30;;;;;;;18.45;9.80;;;;;;;5.74;81.83;98350.91;4992154;28;20105;-59
2022/10/24 03:32:55;;;;;;;15.02;8.95;;;;;;;5.74;82.35;98340.38;4992247;28;20049;-60
2022/10/24 03:35:21;;;;;;;15.35;8.82;;;;;;;5.69;82.18;98350.78;4974635;28;20046;-60
2022/10/24 03:37:47;;;;;;;17.23;9.02;;;;;;;5.65;82.15;98349.66;4992213;28;20046;-60
2022/10/24 03:40:14;;;;;;;16.48;9.07;;;;;;;5.69;82.69;98362.09;4990836;28;20061;-61
2022/10/24 03:42:39;;;;;;;17.67;8.40;;;;;;;5.73;82.42;98354.53;4992089;28;20046;-60
2022/10/24 03:45:05;;;;;;;17.95;8.70;;;;;;;5.72;82.59;98360.03;4992040;28;20057;-63
2022/10/24 03:47:31;;;;;;;16.23;8.55;;;;;;;5.67;82.18;98353.63;4990522;28;20053;-59
2022/10/24 03:49:56;;;;;;;12.10;7.20;;;;;;;5.65;81.75;98358.34;4992164;28;20039;-60
2022/10/24 03:52:22;;;;;;;17.70;8.73;;;;;;;5.62;82.14;98356.16;4992074;28;20411;-60
2022/10/24 03:54:48;;;;;;;14.23;8.38;;;;;;;5.61;82.70;98362.44;4990852;28;20412;-61
2022/10/24 03:57:13;;;;;;;12.80;7.60;;;;;;;5.69;82.00;98363.94;4991828;28;20514;-60
2022/10/24 03:59:39;;;;;;;19.25;11.70;;;;;;;5.75;82.36;98364.84;4992191;28;20039;-60
2022/10/24 04:02:05;;;;;;;20.55;13.00;;;;;;;5.79;81.74;98365.97;4991605;28;20042;-60
2022/10/24 04:04:31;;;;;;;17.35;9.68;;;;;;;5.79;82.54;98365.97;4992119;28;20034;-59
2022/10/24 04:06:57;;;;;;;13.02;7.43;;;;;;;5.81;82.55;98367.34;4990752;28;20412;-60
2022/10/24 04:09:23;;;;;;;12.10;7.22;;;;;;;5.80;81.74;98376.28;4992313;28;20074;-58
2022/10/24 04:11:50;;;;;;;12.52;7.20;;;;;;;5.85;81.81;98372.94;4993112;28;20137;-59
2022/10/24 04:14:15;;;;;;;11.00;7.03;;;;;;;5.86;82.20;98377.19;4999360;28;20042;-59
2022/10/24 04:16:41;;;;;;;11.60;7.10;;;;;;;5.91;82.02;98380.72;5015168;28;20295;-60
2022/10/24 04:19:06;;;;;;;11.95;6.70;;;;;;;5.80;82.04;98380.72;5015582;28;20050;-60
2022/10/24 04:21:32;;;;;;;13.77;8.00;;;;;;;5.80;82.58;98380.72;5013569;28;20049;-59
2022/10/24 04:23:58;;;;;;;10.63;7.05;;;;;;;5.79;82.92;98377.28;5015502;28;20049;-60
2022/10/24 04:26:23;;;;;;;12.40;6.93;;;;;;;5.84;82.06;98387.91;5014813;28;20038;-61
2022/10/24 04:28:49;;;;;;;12.02;6.90;;;;;;;5.91;82.51;98387.78;5030417;28;20045;-60
2022/10/24 04:31:15;;;;;;;10.50;6.15;;;;;;;5.87;81.78;98384.81;5013654;28;20041;-61
2022/10/24 04:33:41;;;;;;;10.30;7.00;;;;;;;5.92;81.71;98400.72;5013798;28;20050;-61
2022/10/24 04:36:06;;;;;;;9.00;6.70;;;;;;;5.94;81.72;98403.13;5014518;28;20037;-61
2022/10/24 04:38:32;;;;;;;10.95;6.28;;;;;;;5.92;81.68;98407.81;5013452;28;20053;-61
2022/10/24 04:40:58;;;;;;;11.77;6.93;;;;;;;5.96;81.53;98414.22;5014693;28;20041;-60
2022/10/24 04:43:23;;;;;;;13.43;7.22;;;;;;;5.93;82.07;98412.06;5014998;28;20392;-61
2022/10/24 04:45:49;;;;;;;9.95;6.47;;;;;;;5.95;81.37;98417.91;5014737;28;20515;-60
2022/10/24 04:48:15;;;;;;;11.20;6.53;;;;;;;5.97;81.90;98425.53;5014934;28;20139;-60
2022/10/24 04:50:42;;;;;;;11.10;6.80;;;;;;;5.85;81.88;98423.72;5014523;28;20060;-59
2022/10/24 04:53:11;;;;;;;;;;;;;;;5.85;82.16;98433.41;5029956;28;20565;-61
2022/10/24 04:55:37;;;;;;;8.38;5.63;;;;;;;5.83;82.33;98424.97;5014371;28;20029;-61
2022/10/24 04:58:03;;;;;;;11.57;5.95;;;;;;;5.81;82.76;98432.28;5014284;28;20519;-61
2022/10/24 05:00:29;;;;;;;11.85;6.68;;;;;;;5.86;81.92;98433.19;5014607;28;20530;-62
2022/10/24 05:02:55;;;;;;;11.55;6.82;;;;;;;5.88;82.33;98435.59;5014370;28;20045;-62
2022/10/24 05:05:20;;;;;;;12.50;6.85;;;;;;;5.87;82.42;98436.63;5014442;28;20050;-61
2022/10/24 05:07:47;;;;;;;11.60;6.60;;;;;;;5.86;82.85;98451.63;5014483;28;20070;-61
2022/10/24 05:10:13;;;;;;;10.75;7.18;;;;;;;5.84;83.45;98451.03;5014110;28;20042;-62
2022/10/24 05:12:39;;;;;;;12.27;6.85;;;;;;;5.83;82.43;98448.66;5014250;28;20046;-63
2022/10/24 05:15:09;;;;;;;13.00;6.90;;;;;;;5.80;82.53;98447.28;5012674;28;20044;-63
2022/10/24 05:17:35;;;;;;;16.25;7.60;;;;;;;5.83;83.04;98446.03;5014201;28;20137;-62
2022/10/24 05:20:00;;;;;;;12.82;7.57;;;;;;;5.90;83.27;98450.13;4996627;28;20138;-63
2022/10/24 05:22:26;;;;;;;13.60;7.68;;;;;;;5.94;82.88;98447.06;5012213;28;20088;-64
2022/10/24 05:24:52;;;;;;;11.57;6.63;;;;;;;5.97;82.36;98447.41;5012499;28;20142;-63
2022/10/24 05:27:23;;;;;;;13.80;7.85;;;;;;;5.98;83.06;98458.72;5012344;28;20049;-61
2022/10/24 05:29:50;;;;;;;12.52;7.25;;;;;;;5.95;82.92;98459.19;5013699;28;20422;-63
2022/10/24 05:32:16;;;;;;;12.82;7.82;;;;;;;5.96;82.60;98464.22;5013866;28;20049;-63
2022/10/24 05:34:42;;;;;;;12.70;7.65;;;;;;;5.98;82.25;98471.88;5013793;28;20123;-61
2022/10/24 05:37:07;;;;;;;13.15;7.75;;;;;;;6.04;81.36;98478.84;5013862;28;20041;-63
2022/10/24 05:39:33;;;;;;;15.07;8.27;;;;;;;6.11;81.31;98475.06;5013625;28;20495;-65
2022/10/24 05:41:58;;;;;;;12.80;7.43;;;;;;;6.12;81.49;98483.78;5013632;28;20042;-63
2022/10/24 05:44:24;;;;;;;13.80;8.02;;;;;;;6.08;80.95;98480.78;5014033;28;20453;-61
2022/10/24 05:46:50;;;;;;;12.88;7.35;;;;;;;6.15;80.57;98483.31;5013336;28;20037;-61
2022/10/24 05:49:15;;;;;;;15.70;7.93;;;;;;;6.16;80.92;98487.53;5028944;28;20046;-63
2022/10/24 05:51:41;;;;;;;15.05;9.13;;;;;;;6.19;80.56;98465.22;5013672;28;20415;-62
2022/10/24 05:54:07;;;;;;;15.93;7.88;;;;;;;6.14;79.71;98481.69;5013320;28;20119;-62
2022/10/24 05:56:32;;;;;;;12.15;7.40;;;;;;;6.19;79.22;98489.72;5013186;28;20514;-63
2022/10/24 05:58:59;;;;;;;12.63;7.07;;;;;;;6.18;79.88;98485.47;5028765;28;20559;-61
2022/10/24 06:01:25;;;;;;;11.57;7.72;;;;;;;6.26;79.50;98493.00;5012977;28;20042;-62
2022/10/24 06:03:51;;;;;;;11.70;7.22;;;;;;;6.33;79.78;98490.28;5013261;28;20096;-63
2022/10/24 06:06:16;;;;;;;13.77;7.68;;;;;;;6.46;78.95;98497.91;5013008;28;20045;-62
2022/10/24 06:08:42;;;;;;;13.98;8.02;;;;;;;6.51;78.14;98489.31;4995493;28;20164;-62
2022/10/24 06:11:12;;;;;;;14.07;7.80;;;;;;;6.57;77.34;98481.28;5013199;28;20092;-63
2022/10/24 06:13:38;;;;;;;15.35;8.07;;;;;;;6.60;77.16;98483.44;5013335;28;20050;-61
2022/10/24 06:16:08;;;;;;;14.73;8.85;;;;;;;6.65;77.35;98495.09;5012663;28;20095;-61
2022/10/24 06:18:34;;;;;;;13.47;8.20;;;;;;;6.54;77.18;98488.84;5011749;28;20082;-61
2022/10/24 06:21:01;;;;;;;12.30;7.30;;;;;;;6.47;76.91;98499.53;5012871;28;20331;-62
2022/10/24 06:23:26;;;;;;;15.07;8.05;;;;;;;6.56;76.65;98507.84;5012760;28;20546;-61
2022/10/24 06:25:52;;;;;;;10.65;6.95;;;;;;;6.67;76.47;98506.22;4999725;28;20042;-62
2022/10/24 06:28:18;;;;;;;13.45;7.65;;;;;;;6.73;76.18;98516.59;4993629;28;20073;-60
2022/10/24 06:30:43;;;;;;;12.20;7.43;;;;;;;6.78;75.40;98513.28;4993000;28;20042;-61
2022/10/24 06:33:09;;;;;;;15.32;7.03;;;;;;;6.79;75.17;98506.97;4975851;28;20042;-62
2022/10/24 06:35:35;;;;;;;13.05;7.55;;;;;;;6.93;75.14;98518.84;4992610;28;20050;-60
2022/10/24 06:38:00;;;;;;;11.02;6.78;;;;;;;7.00;74.90;98522.16;4989545;28;20056;-60
2022/10/24 06:40:26;;;;;;;12.80;6.75;;;;;;;6.94;74.23;98511.72;4992025;28;20046;-60
2022/10/24 06:42:52;;;;;;;13.18;7.47;;;;;;;7.03;74.43;98518.25;4989921;28;20096;-60
2022/10/24 06:45:20;;;;;;;12.63;7.50;;;;;;;7.11;74.21;98511.78;4992171;28;20041;-59
2022/10/24 06:47:45;;;;;;;12.32;7.07;;;;;;;7.07;74.20;98510.66;4990822;28;20081;-60
2022/10/24 06:50:11;;;;;;;12.40;7.05;;;;;;;7.07;73.31;98515.94;4968458;28;20066;-61
2022/10/24 06:52:37;;;;;;;11.25;7.47;;;;;;;6.94;73.42;98519.63;4970911;28;20050;-60
2022/10/24 06:55:03;;;;;;;9.25;6.93;;;;;;;6.92;73.69;98514.63;4972172;28;20070;-60
2022/10/24 06:57:28;;;;;;;12.70;8.10;;;;;;;6.86;73.57;98512.91;4972126;28;20069;-60
2022/10/24 06:59:54;;;;;;;11.70;7.13;;;;;;;6.90;73.88;98519.31;4971342;28;20054;-61
2022/10/24 07:02:20;;;;;;;10.63;7.13;;;;;;;7.01;73.19;98523.75;4972175;28;20054;-60
2022/10/24 07:04:45;;;;;;;12.20;7.68;;;;;;;7.18;72.60;98520.38;4971490;28;20484;-62
2022/10/24 07:07:15;;;;;;;11.60;6.32;;;;;;;7.20;72.12;98526.19;4966035;28;20049;-61
2022/10/24 07:09:41;;;;;;;10.20;6.43;;;;;;;7.21;71.72;98525.16;4990825;28;20045;-61
2022/10/24 07:12:07;;;;;;;9.73;5.95;;;;;;;7.18;72.26;98536.97;4990548;28;20046;-60
2022/10/24 07:14:32;;;;;;;9.00;5.97;;;;;;;7.30;71.14;98539.56;4991292;28;20052;-61
2022/10/24 07:16:58;;;;;;;9.27;5.80;;;;;;;7.42;71.14;98540.28;4990822;28;20042;-61
2022/10/24 07:19:24;;;;;;;9.20;6.13;;;;;;;7.46;70.96;98549.31;4989957;28;20475;-62
2022/10/24 07:21:49;;;;;;;10.32;6.22;;;;;;;7.48;71.08;98554.38;4987349;28;20511;-59
2022/10/24 07:24:15;;;;;;;11.25;6.68;;;;;;;7.43;71.65;98547.16;4990277;28;20073;-59
2022/10/24 07:26:41;;;;;;;9.52;5.22;;;;;;;7.49;70.35;98553.31;4990725;28;20407;-61
2022/10/24 07:29:07;;;;;;;9.95;5.50;;;;;;;7.39;70.66;98539.97;4989270;28;20081;-60
2022/10/24 07:31:34;;;;;;;10.07;6.18;;;;;;;7.37;70.60;98536.75;4989025;28;20050;-60
2022/10/24 07:34:04;;;;;;;7.60;5.13;;;;;;;7.39;71.49;98545.25;4990572;28;20563;-61
2022/10/24 07:36:30;;;;;;;11.73;6.20;;;;;;;7.37;71.44;98550.75;4988730;28;20089;-63
2022/10/24 07:38:57;;;;;;;8.85;5.30;;;;;;;7.33;71.63;98552.25;4990369;28;20070;-61
2022/10/24 07:41:24;;;;;;;7.35;4.40;;;;;;;7.13;71.83;98563.22;4988648;28;20046;-61
2022/10/24 07:43:50;;;;;;;5.55;3.95;;;;;;;6.96;71.30;98562.38;4989545;28;20042;-61
2022/10/24 07:46:17;;;;;;;7.03;3.72;;;;;;;6.85;72.02;98542.91;4987366;28;20047;-62
2022/10/24 07:48:43;;;;;;;5.43;3.40;;;;;;;6.79;72.31;98565.75;4990050;28;20495;-60
2022/10/24 07:51:13;;;;;;;5.80;3.38;;;;;;;6.79;72.85;98578.09;4988762;28;20631;-61
2022/10/24 07:53:39;;;;;;;5.50;3.28;;;;;;;6.73;72.54;98574.53;4989398;28;20459;-61
2022/10/24 07:56:09;;;;;;;6.70;3.78;;;;;;;6.63;72.87;98584.88;4987379;28;20451;-63
2022/10/24 07:58:35;;;;;;;4.00;2.78;;;;;;;6.51;72.89;98581.47;4989048;28;20065;-62
2022/10/24 08:01:06;;;;;;;3.72;2.70;;;;;;;6.58;72.80;98588.19;4989120;28;20105;-62
2022/10/24 08:03:32;;;;;;;3.92;2.60;;;;;;;6.63;73.33;98589.34;4988121;28;20038;-62
2022/10/24 08:05:58;;;;;;;5.20;2.88;;;;;;;6.55;72.65;98599.19;4988676;28;20125;-61
2022/10/24 08:08:24;;;;;;;4.95;3.50;;;;;;;6.45;73.20;98587.66;4988477;28;20431;-62
2022/10/24 08:10:50;;;;;;;7.43;4.00;;;;;;;6.50;72.85;98593.84;4987651;28;20038;-62
2022/10/24 08:13:16;;;;;;;8.35;5.75;;;;;;;6.55;73.00;98596.56;4989293;28;20050;-61
2022/10/24 08:15:41;;;;;;;8.18;4.90;;;;;;;6.68;72.38;98603.44;4989335;28;20064;-62
2022/10/24 08:18:07;;;;;;;6.18;4.28;;;;;;;6.59;73.08;98596.91;4989294;28;20042;-61
2022/10/24 08:20:33;;;;;;;7.72;4.45;;;;;;;6.69;73.29;98606.88;4971785;28;20145;-61
2022/10/24 08:22:59;;;;;;;6.75;3.75;;;;;;;6.77;73.30;98607.31;4988916;28;20511;-61
2022/10/24 08:25:25;;;;;;;5.53;3.50;;;;;;;6.67;73.37;98616.81;4988109;28;20452;-62
2022/10/24 08:27:50;;;;;;;3.70;2.90;;;;;;;6.65;72.44;98614.44;4987589;28;20530;-62
2022/10/24 08:30:19;;;;;;;5.60;3.30;;;;;;;6.70;73.45;98614.53;4987764;28;20042;-62
2022/10/24 08:32:45;;;;;;;5.03;3.10;;;;;;;6.77;73.19;98628.38;4987752;28;20518;-62
2022/10/24 08:35:15;;;;;;;4.55;3.00;;;;;;;6.97;73.62;98629.81;4989194;28;20042;-62
2022/10/24 08:37:41;;;;;;;;;;;;;;;6.93;72.45;98629.50;4989261;28;20050;-61
2022/10/24 08:40:08;;;;;;;5.30;3.65;;;;;;;6.95;73.51;98630.06;5003652;28;19921;-62
2022/10/24 08:42:34;;;;;;;6.20;2.88;;;;;;;7.02;73.80;98632.56;4986616;28;21233;-62
2022/10/24 08:45:00;;;;;;;4.88;2.80;;;;;;;7.11;73.16;98643.56;4984813;28;20034;-63
2022/10/24 08:47:39;;;;;;;7.63;2.80;;;;;;;7.10;72.95;98637.50;4988179;28;20052;-62
2022/10/24 08:50:23;;;;;;;5.35;3.40;;;;;;;7.23;73.78;98639.06;4985715;28;20035;-62
2022/10/24 08:53:10;;;;;;;6.85;3.53;;;;;;;7.20;71.93;98645.59;4988518;28;20046;-63
2022/10/24 08:55:44;;;;;;;4.18;2.75;;;;;;;7.10;71.44;98652.50;4986405;28;20034;-62
2022/10/24 08:58:14;;;;;;;5.55;2.97;;;;;;;7.15;68.80;98652.63;4989995;28;20093;-62
2022/10/24 09:00:42;;;;;;;3.20;2.13;;;;;;;6.88;69.83;98654.94;4991148;28;20046;-63
2022/10/24 09:03:20;;;;;;;3.88;2.42;;;;;;;6.87;70.12;98656.78;4992692;28;20391;-62
2022/10/24 09:05:48;;;;;;;3.88;3.00;;;;;;;6.97;70.65;98650.91;4994211;28;20423;-62
2022/10/24 09:08:27;;;;;;;3.17;2.58;;;;;;;7.00;69.16;98660.97;4992473;28;20054;-62
2022/10/24 09:11:03;;;;;;;4.57;2.63;;;;;;;7.04;68.61;98659.50;4993874;28;20072;-62
2022/10/24 09:13:30;;;;;;;3.38;2.28;;;;;;;6.95;68.84;98674.88;4976880;28;20088;-62
2022/10/24 09:15:56;;;;;;;2.80;2.38;;;;;;;6.95;66.99;98666.97;4994565;28;20077;-62
2022/10/24 09:18:26;;;;;;;2.67;2.08;;;;;;;6.99;66.70;98665.47;4994388;28;20046;-62
2022/10/24 09:20:52;;;;;;;5.23;2.73;;;;;;;7.01;66.72;98663.41;4993882;28;20048;-62
2022/10/24 09:23:20;;;;;;;4.13;2.35;;;;;;;6.97;67.89;98672.81;4992851;28;20525;-62
2022/10/24 09:25:51;;;;;;;3.60;2.58;;;;;;;7.00;67.41;98685.53;4993027;28;20046;-61
2022/10/24 09:28:18;;;;;;;3.50;2.72;;;;;;;7.16;68.06;98680.56;4992717;28;20046;-64
2022/10/24 09:30:44;;;;;;;2.53;2.03;;;;;;;7.06;65.56;98678.53;4992434;28;20046;-64
2022/10/24 09:33:25;;;;;;;2.70;2.00;;;;;;;6.93;65.20;98694.56;4993058;28;20057;-63
2022/10/24 09:35:54;;;;;;;5.07;2.20;;;;;;;6.75;66.62;98691.03;4992609;28;20046;-62
2022/10/24 09:38:30;;;;;;;1.98;1.50;;;;;;;6.61;64.79;98687.00;4992899;28;20050;-61
2022/10/24 09:41:01;;;;;;;2.90;1.88;;;;;;;6.44;65.38;98692.16;4994083;28;20507;-63
2022/10/24 09:43:29;;;;;;;4.25;2.15;;;;;;;6.28;67.41;98687.56;4992603;28;20129;-62
2022/10/24 09:45:55;;;;;;;2.50;2.00;;;;;;;6.21;66.40;98692.13;4991346;28;20142;-62
2022/10/24 09:48:29;;;;;;;3.53;2.55;;;;;;;6.17;67.42;98686.50;4994074;28;20129;-65
2022/10/24 09:50:55;;;;;;;3.47;2.40;;;;;;;6.19;66.75;98688.91;4992135;28;20068;-61
2022/10/24 09:53:25;;;;;;;8.23;3.03;;;;;;;6.15;67.76;98691.19;4991749;28;20511;-63
2022/10/24 09:55:57;;;;;;;2.55;1.83;;;;;;;6.23;66.05;98690.06;4993857;28;20038;-62
2022/10/24 09:58:31;;;;;;;4.38;2.08;;;;;;;6.27;65.78;98692.03;4976116;28;20066;-62
2022/10/24 10:01:19;;;;;;;5.20;3.08;;;;;;;6.54;66.57;98689.75;4991649;28;20154;-64
2022/10/24 10:04:04;;;;;;;4.53;1.92;;;;;;;6.70;63.63;98690.09;4993836;28;20049;-63
2022/10/24 10:06:31;;;;;;;2.88;1.90;;;;;;;6.78;64.54;98695.03;4993579;28;20035;-62
2022/10/24 10:08:57;;;;;;;2.85;1.80;;;;;;;6.75;63.45;98691.03;4991597;28;20050;-63
2022/10/24 10:11:25;;;;;;;3.08;1.90;;;;;;;6.78;63.23;98697.66;4992287;28;20038;-61
2022/10/24 10:13:54;;;;;;;3.15;1.98;;;;;;;6.75;63.36;98700.75;4993427;28;20077;-62
2022/10/24 10:16:21;;;;;;;3.33;2.20;;;;;;;6.66;63.31;98689.75;4993049;28;20049;-61
2022/10/24 10:18:51;;;;;;;2.63;1.60;;;;;;;6.54;64.12;98697.66;4957883;28;20046;-62
2022/10/24 10:21:17;;;;;;;3.10;2.20;;;;;;;6.36;64.56;98703.03;4990457;28;20050;-62
2022/10/24 10:23:53;;;;;;;4.47;2.80;;;;;;;6.39;66.23;98709.66;4991241;28;20054;-62
2022/10/24 10:26:28;;;;;;;5.50;3.08;;;;;;;6.46;65.54;98712.97;4992193;28;20159;-62
2022/10/24 10:28:55;;;;;;;3.47;2.60;;;;;;;6.52;66.08;98720.78;4991287;28;20138;-62
2022/10/24 10:31:38;;;;;;;5.68;3.42;;;;;;;6.60;65.59;98711.75;4992849;28;20042;-62
2022/10/24 10:34:22;;;;;;;6.85;4.28;;;;;;;6.68;65.24;98721.94;4991317;28;20114;-62
2022/10/24 10:37:29;;;;;;;6.15;3.70;;;;;;;6.78;64.30;98721.38;4992780;28;20049;-62
2022/10/24 10:40:25;;;;;;;3.00;2.28;;;;;;;6.76;62.93;98723.44;4990629;28;20355;-61
2022/10/24 10:43:23;;;;;;;3.70;2.60;;;;;;;6.74;65.09;98722.88;4991328;28;20148;-63
2022/10/24 10:46:16;;;;;;;2.13;1.60;;;;;;;6.63;63.82;98736.81;4989693;28;20045;-63
2022/10/24 10:49:09;;;;;;;2.47;1.80;;;;;;;6.56;63.52;98742.22;4986416;28;20082;-63
2022/10/24 10:51:44;;;;;;;2.35;1.95;;;;;;;6.42;63.23;98725.81;4991096;28;20515;-62
2022/10/24 10:54:30;;;;;;;2.05;1.80;;;;;;;6.46;61.07;98737.47;4989441;28;20491;-62
2022/10/24 10:57:00;;;;;;;1.98;1.73;;;;;;;6.43;59.61;98732.66;4989977;28;20534;-62
2022/10/24 11:00:07;;;;;;;2.63;1.88;;;;;;;6.41;59.65;98732.06;4974420;28;20065;-62
2022/10/24 11:03:00;;;;;;;1.50;1.40;;;;;;;6.42;58.00;98735.53;4991862;28;20077;-63
2022/10/24 11:05:40;;;;;;;2.05;1.60;;;;;;;6.38;56.78;98732.53;4990877;28;20048;-63
2022/10/24 11:08:15;;;;;;;2.63;1.45;;;;;;;6.43;57.54;98740.56;4992482;28;20050;-62
2022/10/24 11:11:02;;;;;;;5.30;1.48;;;;;;;6.47;58.25;98733.84;4992048;28;20046;-62
2022/10/24 11:13:36;;;;;;;3.55;2.33;;;;;;;6.38;58.01;98706.22;4991276;28;20513;-62
2022/10/24 11:16:05;;;;;;;2.20;1.50;;;;;;;6.45;57.88;98732.44;4990775;28;20518;-63
2022/10/24 11:18:36;;;;;;;2.38;1.65;;;;;;;6.49;56.80;98737.03;4990055;28;20510;-63
2022/10/24 11:21:05;;;;;;;4.63;1.60;;;;;;;6.54;55.91;98745.06;4989740;28;20411;-62
2022/10/24 11:23:40;;;;;;;3.33;1.80;;;;;;;6.55;56.04;98743.22;4991026;28;20061;-63
2022/10/24 11:26:09;;;;;;;3.45;1.73;;;;;;;6.66;56.00;98739.00;4973903;28;20074;-62
2022/10/24 11:29:08;;;;;;;1.73;1.40;;;;;;;6.66;54.10;98744.28;4991191;28;20117;-62
2022/10/24 11:31:38;;;;;;;4.43;2.08;;;;;;;6.71;54.26;98739.94;4989467;28;20103;-62
2022/10/24 11:34:07;;;;;;;3.15;2.03;;;;;;;6.71;54.89;98736.50;4989707;28;20047;-63
2022/10/24 11:36:59;;;;;;;1.23;1.13;;;;;;;6.73;54.44;98737.84;4990756;28;20088;-62
2022/10/24 11:39:29;;;;;;;1.60;1.30;;;;;;;6.77;55.27;98751.38;4991103;28;20101;-62
2022/10/24 11:42:39;;;;;;;2.47;0.98;;;;;;;6.55;45.40;98745.84;4988956;28;20081;-62
2022/10/24 11:45:09;;;;;;;0.80;0.80;;;;;;;6.47;44.51;98754.06;4990546;28;20061;-64
2022/10/24 11:48:12;;;;;;;0.98;0.82;;;;;;;6.34;45.72;98760.34;4973999;28;20580;-63